Saturday, July 02, 2016
05:39 UTC
  |  Log In   |  Register Free
Airport Search:

Northeast Philadelphia Airport
(KPNE)

FAA data valid effective May 26 2016 - Jul 21 2016 (unless otherwise noted).

 
 
 
 
 
 
 
 
 
 
 
 
 
 
Current Aviation Weather for KPNE

Weather Summary


The most recent METAR observation for PNE was updated at: 12:54 UTC
METAR for KPNE is not available. Closest METAR is for KVAY
KPNE  (most recent observation was updatred at 20:45 UTC)
020454Z 27007KT 10SM CLR 24/18 A2989 RMK AO2 SLP119 T02390183 403060200

KVAY  (11.3 nm NW)   (most recent observation was updated at 20:45 UTC)
020454Z AUTO 26005KT 10SM CLR 23/19 A2986 RMK AO2 SLP112 T02280189 403110183 TSNO

KLOM  (12.2 nm SE)   (most recent observation was updated at 20:51 UTC)
020515Z AUTO 28006KT 10SM SCT090 22/18 A2990 RMK AO1

TAF for KPNE is not available.
KPNE
020521Z 0206/0306 26007KT P6SM SCT250 FM020800 30008KT P6SM SCT080 BKN100 FM021300 32010G18KT P6SM FEW050 FM022200 29007KT P6SM BKN250 FM030500 VRB02KT P6SM BKN250

KTTN  (14.8 nm SW)   (most recent observation was updatred at 20:52 UTC)
020521Z 0206/0306 27005KT P6SM SCT250 FM020800 30008KT P6SM SCT080 BKN100 FM021300 33010G18KT P6SM FEW050 FM022200 31007KT P6SM BKN250 FM030200 VRB02KT P6SM BKN250


KPHL  (16.5 nm NE)   (most recent observation was updatred at 20:52 UTC)
020521Z 0206/0312 26012KT P6SM SCT250 FM020800 30008KT P6SM SCT080 BKN100 FM021300 32010G18KT P6SM FEW050 FM022200 28007KT P6SM BKN250 FM030600 VRB02KT P6SM BKN250
GlobalAir.com is loading additional information.
 Current Weather at PNE
75.0 F° (23.9 C°)

West winds at 8.1 mph
Pressure:
29.89 in
Humidity:
71%
Wind:
West at 8.1 mph
Dew Point:
64.9 F° (18.3 C°)
Visibility:
10.00 mi
PNE NOAA Radar




Find All Airport Services Find A Hotel Find A Rental Car Find A Golf Course Find A Restaurant $100 Hamburger



Airport Weather Forecast for KPNE

Translated METAR for KPNE (0454 UTC)
METAR:
KPNE 020454Z 27007KT 10SM CLR 24/18 A2989 RMK AO2 SLP119 T02390183 403060200
Conditions at:
KPNE (Northeast Philadelphia, PA) observed 0454 UTC 02 July 2016
Temperature:
24°C (75.2°F)
Dewpoint:
18°C (64.4°F) [RH = 69.2]
Pressure:
29.89 inches Hg (1012.2 mb)
pressure at sea level is 119 in Hg
Winds:
from the W (270 degrees) at 8.1 mph (7 knots: 3.6 m/s)
Visibility:
10 mile(s)
Ceiling:
at least 12,000 feet AGL
Clouds:
Clear below 12,000 feet AGL
Remarks:
site is automated and HAS a precipitation sensor

Translated TAF for KPNE (Northeast Philadelphia, PA) (0521 UTC)
TAF text:
KPNE 020521Z 0206/0306 26007KT P6SM SCT250
Forecast period:
Saturday Jul 02 2016 06:00 UTC - Sunday Jul 03 2016 06:00 UTC
Forecast type:
FROM: standard forecast or significant change
Winds:
from the W (260 degrees) at 8.1 mph (7 knots: 3.6 m/s)
Visibility:
6 or more mile(s) (9.7+ km)
Ceiling:
at least 12,000 feet AGL
Clouds:
Scattered Clouds at 25,000 feet AGL
Weather:
no significant weather observed at this time
TAF text:
FM020800 30008KT P6SM SCT080 BKN100
Forecast period:
Saturday Jul 02 2016 08:00 UTC - Saturday Jul 02 2016 13:00 UTC
Forecast type:
FROM: standard forecast or significant change
Winds:
from the WNW (300 degrees) at 9.2 mph (8 knots: 4.1 m/s)
Visibility:
6 or more mile(s) (9.7+ km)
Ceiling:
10,000 feet AGL
Clouds:
Scattered Clouds at 8,000 feet AGL
Broken Cloud Cover at 10,000 feet AGL
Weather:
no significant weather observed at this time
TAF text:
FM021300 32010G18KT P6SM FEW050
Forecast period:
Saturday Jul 02 2016 13:00 UTC - Saturday Jul 02 2016 22:00 UTC
Forecast type:
FROM: standard forecast or significant change
Winds:
from the NW (320 degrees) at 11.5 mph (10 knots: 5.1 m/s)
gusting to 20.7 mph (18 knots: 9.3 m/s)
Visibility:
6 or more mile(s) (9.7+ km)
Ceiling:
at least 12,000 feet AGL
Clouds:
Few Clouds at 5,000 feet AGL
Weather:
no significant weather observed at this time
TAF text:
FM022200 29007KT P6SM BKN250
Forecast period:
Saturday Jul 02 2016 22:00 UTC - Sunday Jul 03 2016 05:00 UTC
Forecast type:
FROM: standard forecast or significant change
Winds:
from the WNW (290 degrees) at 8.1 mph (7 knots: 3.6 m/s)
Visibility:
6 or more mile(s) (9.7+ km)
Ceiling:
25,000 feet AGL
Clouds:
Broken Cloud Cover at 25,000 feet AGL
Weather:
no significant weather observed at this time
TAF text:
FM030500 VRB02KT P6SM BKN250
Forecast period:
Sunday Jul 03 2016 05:00 UTC - Sunday Jul 03 2016 06:00 UTC
Forecast type:
FROM: standard forecast or significant change
Winds:
variable wind direction at 2.3 mph (2 knots: 1 m/s)
Visibility:
6 or more mile(s) (9.7+ km)
Ceiling:
25,000 feet AGL
Clouds:
Broken Cloud Cover at 25,000 feet AGL
Weather:
no significant weather observed at this time
FBO's on the Field
FBO Company Facility Photos Services Transportation Aviation Fuel Prices: Prices include tax
Catering Weather Repair Courtesy Rental Type 100LL JetA JetA+ MOGAS 8087
 
Atlantic Aviation

This FBO has not yet been rated
FS:Independent
Last Updated: Jul-01
Login to update fuel prices
SS:
Contact Atlantic AviationMore FBO Information
 
North Philadelphia Jet Center

Currently rated 5 by 2 people
FS:Avfuel
Last Updated: Jun-20
Login to update fuel prices
SS:
Contact North Philadelphia Jet CenterMore FBO Information
 
Add another FBO Facility Photos Catering Weather Repair Courtesy Rental Type 100LL JetA JetA+ MOGAS 8087
Services Transportation Aviation Fuel Prices: Prices include tax


model-print
model-print
model-print
model-print